createdAt,value
2023-02-03T00:00:45.133Z,-0.41
2023-02-03T00:03:14.869Z,-0.41
2023-02-03T00:05:45.055Z,-0.43
2023-02-03T00:08:16.373Z,-0.39
2023-02-03T00:10:47.513Z,-0.37
2023-02-03T00:13:17.282Z,-0.37
2023-02-03T00:15:46.615Z,-0.38
2023-02-03T00:18:15.969Z,-0.36
2023-02-03T00:20:45.414Z,-0.34
2023-02-03T00:23:15.432Z,-0.37
2023-02-03T00:25:46.195Z,-0.40
2023-02-03T00:28:16.151Z,-0.44
2023-02-03T00:30:45.596Z,-0.45
2023-02-03T00:33:14.929Z,-0.47
2023-02-03T00:35:44.240Z,-0.47
2023-02-03T00:38:13.579Z,-0.41
2023-02-03T00:40:42.970Z,-0.40
2023-02-03T00:43:13.662Z,-0.46
2023-02-03T00:45:43.084Z,-0.42
2023-02-03T00:50:33.707Z,-0.39
2023-02-03T00:53:02.978Z,-0.37
2023-02-03T00:55:32.337Z,-0.41
2023-02-03T00:58:01.642Z,-0.45
2023-02-03T01:00:31.165Z,-0.46
2023-02-03T01:03:00.413Z,-0.47
2023-02-03T01:05:29.821Z,-0.46
2023-02-03T01:08:01.778Z,-0.47
2023-02-03T01:10:32.476Z,-0.47
2023-02-03T01:13:01.802Z,-0.47
2023-02-03T01:15:31.096Z,-0.46
2023-02-03T01:18:00.401Z,-0.48
2023-02-03T01:20:29.873Z,-0.52
2023-02-03T01:23:00.517Z,-0.54
2023-02-03T01:25:29.954Z,-0.52
2023-02-03T01:27:59.477Z,-0.52
2023-02-03T01:30:29.177Z,-0.51
2023-02-03T01:32:58.780Z,-0.56
2023-02-03T01:35:28.090Z,-0.61
2023-02-03T01:37:57.439Z,-0.64
2023-02-03T01:40:28.571Z,-0.63
2023-02-03T01:42:58.240Z,-0.60
2023-02-03T01:45:27.808Z,-0.59
2023-02-03T01:48:01.208Z,-0.59
2023-02-03T01:50:34.995Z,-0.63
2023-02-03T01:53:10.495Z,-0.70
2023-02-03T01:55:46.429Z,-0.73
2023-02-03T01:58:22.555Z,-0.78
2023-02-03T02:00:52.297Z,-0.92
2023-02-03T02:03:26.939Z,-0.96
2023-02-03T02:06:04.465Z,-0.98
2023-02-03T02:08:34.296Z,-1.02
2023-02-03T02:11:05.830Z,-1.04
2023-02-03T02:13:36.834Z,-1.08
2023-02-03T02:16:13.690Z,-1.09
2023-02-03T02:19:13.877Z,-1.05
2023-02-03T02:22:01.578Z,-1.04
2023-02-03T02:25:16.973Z,-1.06
2023-02-03T02:28:42.100Z,-1.13
2023-02-03T02:31:44.639Z,-1.13
2023-02-03T02:34:24.341Z,-1.11
2023-02-03T02:37:06.481Z,-1.12
2023-02-03T02:39:47.328Z,-1.13
2023-02-03T02:42:24.216Z,-1.19
2023-02-03T02:45:05.193Z,-1.17
2023-02-03T02:47:36.174Z,-1.10
2023-02-03T02:50:10.770Z,-1.10
2023-02-03T02:52:44.293Z,-1.10
2023-02-03T02:55:24.814Z,-1.12
2023-02-03T02:57:58.996Z,-1.11
2023-02-03T03:00:32.457Z,-1.02
2023-02-03T03:03:15.131Z,-0.96
2023-02-03T03:05:48.680Z,-0.90
2023-02-03T03:08:21.492Z,-0.87
2023-02-03T03:10:51.132Z,-0.85
2023-02-03T03:13:27.550Z,-0.82
2023-02-03T03:16:02.426Z,-0.82
2023-02-03T03:18:37.277Z,-0.81
2023-02-03T03:21:09.346Z,-0.82
2023-02-03T03:23:42.876Z,-0.81
2023-02-03T03:26:18.514Z,-0.80
2023-02-03T03:28:52.106Z,-0.77
2023-02-03T03:31:22.994Z,-0.76
2023-02-03T03:33:53.846Z,-0.73
2023-02-03T03:36:29.206Z,-0.74
2023-02-03T03:39:07.133Z,-0.71
2023-02-03T03:41:46.490Z,-0.74
2023-02-03T03:44:19.240Z,-0.73
2023-02-03T03:46:56.457Z,-0.76
2023-02-03T03:51:40.797Z,-0.83
2023-02-03T03:54:14.703Z,-0.86
2023-02-03T03:56:53.266Z,-0.87
2023-02-03T03:59:26.838Z,-0.91
2023-02-03T04:01:57.160Z,-0.94
2023-02-03T04:04:28.292Z,-0.95
2023-02-03T04:06:59.195Z,-0.96
2023-02-03T04:09:28.853Z,-0.97
2023-02-03T04:12:06.060Z,-0.96
2023-02-03T04:14:39.083Z,-0.99
2023-02-03T04:17:10.089Z,-1.02
2023-02-03T04:19:39.437Z,-1.04
2023-02-03T04:22:10.219Z,-1.06
2023-02-03T04:24:39.501Z,-1.06
2023-02-03T04:27:08.737Z,-1.05
2023-02-03T04:29:38.073Z,-1.06
2023-02-03T04:32:07.759Z,-1.06
2023-02-03T04:34:37.010Z,-1.08
2023-02-03T04:37:06.351Z,-1.11
2023-02-03T04:39:37.142Z,-1.12
2023-02-03T04:42:06.718Z,-1.13
2023-02-03T04:44:36.047Z,-1.13
2023-02-03T04:47:05.407Z,-1.12
2023-02-03T04:49:34.740Z,-1.09
2023-02-03T04:52:04.241Z,-1.08
2023-02-03T04:54:34.405Z,-1.07
2023-02-03T04:57:06.353Z,-1.08
2023-02-03T04:59:35.797Z,-1.07
2023-02-03T05:02:05.755Z,-1.08
2023-02-03T05:04:35.114Z,-1.10
2023-02-03T05:07:04.538Z,-1.13
2023-02-03T05:09:34.026Z,-1.13
2023-02-03T05:12:05.029Z,-1.13
2023-02-03T05:14:35.207Z,-1.13
2023-02-03T05:17:04.540Z,-1.11
2023-02-03T05:19:33.812Z,-1.12
2023-02-03T05:22:03.147Z,-1.14
2023-02-03T05:24:32.473Z,-1.18
2023-02-03T05:27:01.821Z,-1.19
2023-02-03T05:29:32.633Z,-1.20
2023-02-03T05:32:02.053Z,-1.25
2023-02-03T05:34:31.741Z,-1.25
2023-02-03T05:37:01.145Z,-1.27
2023-02-03T05:39:30.470Z,-1.31
2023-02-03T05:41:58.844Z,-1.30
2023-02-03T05:44:34.432Z,-1.28
2023-02-03T05:47:03.671Z,-1.27
2023-02-03T05:49:32.961Z,-1.26
2023-02-03T05:52:02.476Z,-1.24
2023-02-03T05:54:31.918Z,-1.21
2023-02-03T05:57:01.200Z,-1.20
2023-02-03T05:59:32.153Z,-1.19
2023-02-03T06:02:01.503Z,-1.15
2023-02-03T06:04:31.131Z,-1.14
2023-02-03T06:07:00.456Z,-1.16
2023-02-03T06:09:29.770Z,-1.14
2023-02-03T06:11:59.119Z,-1.11
2023-02-03T06:14:28.474Z,-1.11
2023-02-03T06:16:59.161Z,-1.12
2023-02-03T06:19:28.562Z,-1.08
2023-02-03T06:21:57.983Z,-1.04
2023-02-03T06:24:27.296Z,-0.98
2023-02-03T06:26:56.583Z,-0.98
2023-02-03T06:29:26.260Z,-0.99
2023-02-03T06:31:55.704Z,-0.98
2023-02-03T06:34:26.529Z,-0.95
2023-02-03T06:36:55.925Z,-0.91
2023-02-03T06:39:25.481Z,-0.89
2023-02-03T06:41:56.077Z,-0.85
2023-02-03T06:44:25.821Z,-0.87
2023-02-03T06:46:56.533Z,-0.86
2023-02-03T06:51:33.788Z,-0.90
2023-02-03T06:54:04.098Z,-0.92
2023-02-03T06:56:33.649Z,-0.87
2023-02-03T06:59:02.896Z,-0.81
2023-02-03T07:01:32.485Z,-0.78
2023-02-03T07:04:01.746Z,-0.72
2023-02-03T07:06:34.376Z,-0.70
2023-02-03T07:09:06.531Z,-0.64
2023-02-03T07:11:35.912Z,-0.58
2023-02-03T07:14:05.265Z,-0.56
2023-02-03T07:16:34.591Z,-0.41
2023-02-03T07:19:03.996Z,-0.32
2023-02-03T07:21:35.289Z,-0.17
2023-02-03T07:24:05.338Z,-0.04
2023-02-03T07:26:34.655Z,0.09
2023-02-03T07:29:04.275Z,0.09
2023-02-03T07:31:33.768Z,0.11
2023-02-03T07:34:03.330Z,0.13
2023-02-03T07:36:34.120Z,0.15
2023-02-03T07:39:03.476Z,0.16
2023-02-03T07:41:32.969Z,0.08
2023-02-03T07:44:02.398Z,0.06
2023-02-03T07:46:31.896Z,0.06
2023-02-03T07:49:01.331Z,0.06
2023-02-03T07:51:30.614Z,-0.01
2023-02-03T07:54:01.345Z,-0.07
2023-02-03T07:56:32.890Z,-0.06
2023-02-03T07:59:02.694Z,-0.03
2023-02-03T08:01:34.360Z,-0.03
2023-02-03T08:04:05.576Z,-0.13
2023-02-03T08:06:37.800Z,-0.15
2023-02-03T08:09:08.618Z,-0.06
2023-02-03T08:11:37.952Z,0.05
2023-02-03T08:14:07.359Z,0.06
2023-02-03T08:16:36.831Z,0.10
2023-02-03T08:19:06.351Z,0.17
2023-02-03T08:21:36.003Z,0.23
2023-02-03T08:24:05.711Z,0.30
2023-02-03T08:26:37.855Z,0.33
2023-02-03T08:29:08.003Z,0.39
2023-02-03T08:31:37.551Z,0.49
2023-02-03T08:34:06.959Z,0.56
2023-02-03T08:36:39.446Z,0.60
2023-02-03T08:39:08.977Z,0.57
2023-02-03T08:41:39.592Z,0.46
2023-02-03T08:44:08.893Z,0.51
2023-02-03T08:46:43.602Z,0.59
2023-02-03T08:49:13.071Z,0.59
2023-02-03T08:51:42.849Z,0.64
2023-02-03T08:54:12.248Z,0.64
2023-02-03T08:56:43.595Z,0.63
2023-02-03T08:59:14.352Z,0.65
2023-02-03T09:01:45.989Z,0.60
2023-02-03T09:04:18.649Z,0.67
2023-02-03T09:06:48.309Z,0.98
2023-02-03T09:09:17.911Z,1.37
2023-02-03T09:11:48.774Z,1.73
2023-02-03T09:14:18.161Z,1.78
2023-02-03T09:16:47.534Z,1.74
2023-02-03T09:19:16.889Z,2.00
2023-02-03T09:21:48.075Z,2.27
2023-02-03T09:24:18.191Z,2.22
2023-02-03T09:26:48.950Z,1.99
2023-02-03T09:29:18.321Z,1.84
2023-02-03T09:31:48.587Z,2.05
2023-02-03T09:34:18.001Z,2.09
2023-02-03T09:36:47.401Z,2.32
2023-02-03T09:39:17.650Z,2.73
2023-02-03T09:42:26.054Z,3.08
2023-02-03T09:45:12.260Z,2.86
2023-02-03T09:47:45.569Z,2.65
2023-02-03T09:51:43.994Z,2.28
2023-02-03T09:54:21.070Z,2.13
2023-02-03T09:56:52.677Z,2.02
2023-02-03T09:59:22.389Z,1.91
2023-02-03T10:02:00.384Z,1.83
2023-02-03T10:04:40.220Z,1.77
2023-02-03T10:07:17.494Z,1.62
2023-02-03T10:09:58.648Z,1.44
2023-02-03T10:12:55.593Z,1.42
2023-02-03T10:16:06.349Z,1.62
2023-02-03T10:18:40.713Z,1.83
2023-02-03T10:21:20.953Z,1.74
2023-02-03T10:23:55.235Z,1.73
2023-02-03T10:26:29.428Z,1.71
2023-02-03T10:29:03.037Z,1.56
2023-02-03T10:31:39.151Z,1.50
2023-02-03T10:34:14.612Z,1.54
2023-02-03T10:36:57.281Z,1.59
2023-02-03T10:39:43.459Z,1.67
2023-02-03T10:42:14.295Z,1.78
2023-02-03T10:44:48.872Z,1.91
2023-02-03T10:47:27.651Z,1.85
2023-02-03T10:49:59.775Z,1.98
2023-02-03T10:52:32.830Z,2.17
2023-02-03T10:55:12.030Z,2.25
2023-02-03T10:57:42.833Z,2.25
2023-02-03T11:00:26.262Z,2.27
2023-02-03T11:03:02.938Z,2.33
2023-02-03T11:05:32.252Z,2.33
2023-02-03T11:08:01.727Z,2.31
2023-02-03T11:10:37.312Z,2.18
2023-02-03T11:13:23.328Z,2.10
2023-02-03T11:16:00.461Z,2.14
2023-02-03T11:18:49.493Z,2.11
2023-02-03T11:21:22.812Z,2.15
2023-02-03T11:24:05.320Z,2.23
2023-02-03T11:26:41.745Z,2.28
2023-02-03T11:29:23.703Z,2.29
2023-02-03T11:31:56.828Z,2.33
2023-02-03T11:34:32.009Z,2.32
2023-02-03T11:37:27.147Z,2.35
2023-02-03T11:39:58.909Z,2.29
2023-02-03T11:42:29.757Z,2.41
2023-02-03T11:45:16.696Z,2.54
2023-02-03T11:47:51.131Z,2.69
2023-02-03T11:50:32.220Z,2.67
2023-02-03T11:53:29.050Z,2.63
2023-02-03T11:56:26.795Z,2.56
2023-02-03T11:59:42.599Z,2.51
2023-02-03T12:02:47.404Z,2.34
2023-02-03T12:05:55.513Z,1.99
2023-02-03T12:08:44.093Z,1.98
2023-02-03T12:11:26.872Z,2.06
2023-02-03T12:14:31.073Z,2.24
2023-02-03T12:17:37.389Z,2.23
2023-02-03T12:20:32.208Z,2.15
2023-02-03T12:23:16.914Z,2.10
2023-02-03T12:26:03.777Z,2.19
2023-02-03T12:28:50.230Z,2.25
2023-02-03T12:31:29.709Z,2.28
2023-02-03T12:34:13.338Z,2.24
2023-02-03T12:36:46.449Z,2.23
2023-02-03T12:39:26.551Z,2.21
2023-02-03T12:42:03.403Z,2.17
2023-02-03T12:44:40.848Z,2.22
2023-02-03T12:47:24.073Z,2.18
2023-02-03T12:51:42.245Z,2.10
2023-02-03T12:54:28.593Z,2.14
2023-02-03T12:57:04.207Z,2.08
2023-02-03T12:59:35.186Z,2.09
2023-02-03T13:02:18.092Z,2.09
2023-02-03T13:04:51.151Z,2.08
2023-02-03T13:07:29.992Z,2.06
2023-02-03T13:10:05.412Z,2.11
2023-02-03T13:12:42.468Z,2.08
2023-02-03T13:15:28.664Z,1.99
2023-02-03T13:18:05.716Z,1.95
2023-02-03T13:20:38.073Z,1.87
2023-02-03T13:23:13.714Z,1.82
2023-02-03T13:26:07.848Z,1.82
2023-02-03T13:29:01.476Z,1.79
2023-02-03T13:31:45.643Z,1.78
2023-02-03T13:34:56.252Z,1.75
2023-02-03T13:37:53.903Z,1.69
2023-02-03T13:40:36.790Z,1.69
2023-02-03T13:43:13.847Z,1.66
2023-02-03T13:45:48.322Z,1.68
2023-02-03T13:48:22.679Z,1.64
2023-02-03T13:51:05.680Z,1.51
2023-02-03T13:53:39.736Z,1.45
2023-02-03T13:56:20.070Z,1.37
2023-02-03T13:59:04.970Z,1.34
2023-02-03T14:01:38.870Z,1.31
2023-02-03T14:04:10.162Z,1.27
2023-02-03T14:07:04.646Z,1.24
2023-02-03T14:09:42.750Z,1.18
2023-02-03T14:12:43.235Z,1.17
2023-02-03T14:15:32.762Z,1.10
2023-02-03T14:18:34.927Z,1.12
2023-02-03T14:21:23.860Z,1.10
2023-02-03T14:24:07.733Z,1.12
2023-02-03T14:26:48.840Z,1.09
2023-02-03T14:29:30.266Z,1.05
2023-02-03T14:32:02.706Z,1.01
2023-02-03T14:34:35.963Z,0.98
2023-02-03T14:37:24.850Z,0.92
2023-02-03T14:40:26.688Z,0.93
2023-02-03T14:43:27.733Z,0.90
2023-02-03T14:46:22.514Z,0.84
2023-02-03T14:49:28.568Z,0.74
2023-02-03T14:52:40.137Z,0.66
2023-02-03T14:55:32.348Z,0.62
2023-02-03T14:58:05.669Z,0.61
2023-02-03T15:00:37.826Z,0.60
2023-02-03T15:03:30.369Z,0.61
2023-02-03T15:06:05.058Z,0.65
2023-02-03T15:08:45.630Z,0.63
2023-02-03T15:11:32.063Z,0.63
2023-02-03T15:14:21.531Z,0.59
2023-02-03T15:16:58.042Z,0.54
2023-02-03T15:19:33.970Z,0.45
2023-02-03T15:22:03.716Z,0.32
2023-02-03T15:24:39.211Z,0.19
2023-02-03T15:27:23.571Z,0.10
2023-02-03T15:29:53.405Z,0.02
2023-02-03T15:32:29.445Z,-0.10
2023-02-03T15:35:03.557Z,-0.24
2023-02-03T15:37:39.051Z,-0.30
2023-02-03T15:40:15.212Z,-0.39
2023-02-03T15:42:54.803Z,-0.40
2023-02-03T15:45:30.497Z,-0.43
2023-02-03T15:51:36.590Z,-0.55
2023-02-03T15:54:13.372Z,-0.63
2023-02-03T15:56:48.942Z,-0.71
2023-02-03T15:59:25.110Z,-0.79
2023-02-03T16:01:55.368Z,-0.85
2023-02-03T16:04:27.389Z,-0.90
2023-02-03T16:06:59.070Z,-0.99
2023-02-03T16:09:32.609Z,-1.04
2023-02-03T16:12:14.765Z,-1.13
2023-02-03T16:14:45.079Z,-1.16
2023-02-03T16:17:29.010Z,-1.19
2023-02-03T16:20:29.736Z,-1.20
2023-02-03T16:23:07.814Z,-1.30
2023-02-03T16:25:37.812Z,-1.29
2023-02-03T16:28:35.564Z,-1.35
2023-02-03T16:31:32.465Z,-1.42
2023-02-03T16:34:21.231Z,-1.41
2023-02-03T16:37:07.869Z,-1.42
2023-02-03T16:39:56.186Z,-1.47
2023-02-03T16:42:42.803Z,-1.49
2023-02-03T16:45:35.003Z,-1.58
2023-02-03T16:48:22.881Z,-1.65
2023-02-03T16:50:58.204Z,-1.67
2023-02-03T16:53:31.576Z,-1.73
2023-02-03T16:56:05.651Z,-1.76
2023-02-03T16:58:34.974Z,-1.82
2023-02-03T17:01:07.102Z,-1.87
2023-02-03T17:03:37.969Z,-1.91
2023-02-03T17:06:10.544Z,-1.98
2023-02-03T17:08:41.662Z,-2.05
2023-02-03T17:11:18.475Z,-2.08
2023-02-03T17:13:48.930Z,-2.12
2023-02-03T17:16:20.900Z,-2.19
2023-02-03T17:18:50.339Z,-2.27
2023-02-03T17:21:22.562Z,-2.33
2023-02-03T17:23:52.576Z,-2.44
2023-02-03T17:26:23.536Z,-2.58
2023-02-03T17:28:52.834Z,-2.64
2023-02-03T17:31:23.224Z,-2.61
2023-02-03T17:33:54.507Z,-2.61
2023-02-03T17:36:24.832Z,-2.68
2023-02-03T17:55:34.652Z,-2.86
2023-02-03T17:58:05.406Z,-2.85
2023-02-03T18:00:34.788Z,-2.81
2023-02-03T18:03:04.182Z,-2.80
2023-02-03T18:05:34.158Z,-2.81
2023-02-03T18:08:09.240Z,-2.78
2023-02-03T18:10:46.079Z,-2.76
2023-02-03T18:13:16.807Z,-2.76
2023-02-03T18:15:46.145Z,-2.80
2023-02-03T18:18:15.535Z,-2.81
2023-02-03T18:20:44.862Z,-2.84
2023-02-03T18:23:14.580Z,-2.84
2023-02-03T18:25:43.828Z,-2.86
2023-02-03T18:28:13.241Z,-2.87
2023-02-03T18:30:44.067Z,-2.92
2023-02-03T18:33:14.003Z,-2.92
2023-02-03T18:35:43.564Z,-2.94
2023-02-03T18:38:13.217Z,-2.93
2023-02-03T18:40:42.558Z,-2.94
2023-02-03T18:43:11.905Z,-2.93
2023-02-03T18:45:42.708Z,-2.90
2023-02-03T18:51:33.853Z,-2.84
2023-02-03T18:54:03.629Z,-2.85
2023-02-03T18:56:35.492Z,-2.77
2023-02-03T18:59:12.188Z,-2.74
2023-02-03T19:01:41.865Z,-2.68
2023-02-03T19:04:11.928Z,-2.63
2023-02-03T19:06:45.826Z,-2.60
2023-02-03T19:09:18.231Z,-2.57
2023-02-03T19:11:48.039Z,-2.60
2023-02-03T19:14:17.823Z,-2.64
2023-02-03T19:16:50.483Z,-2.64
2023-02-03T19:19:20.178Z,-2.69
2023-02-03T19:21:52.332Z,-2.69
2023-02-03T19:24:22.138Z,-2.70
2023-02-03T19:26:51.461Z,-2.72
2023-02-03T19:29:21.232Z,-2.79
2023-02-03T19:31:50.735Z,-2.74
2023-02-03T19:34:20.676Z,-2.75
2023-02-03T19:36:52.816Z,-2.82
2023-02-03T19:39:22.387Z,-2.86
2023-02-03T19:41:51.836Z,-2.85
2023-02-03T19:44:21.099Z,-2.83
2023-02-03T19:46:50.361Z,-2.79
2023-02-03T19:49:19.815Z,-2.72
2023-02-03T19:51:50.507Z,-2.64
2023-02-03T19:54:20.123Z,-2.49
2023-02-03T19:56:49.466Z,-2.36
2023-02-03T19:59:18.719Z,-2.28
2023-02-03T20:01:49.896Z,-2.22
2023-02-03T20:04:19.273Z,-2.15
2023-02-03T20:06:49.908Z,-2.08
2023-02-03T20:09:19.324Z,-2.13
2023-02-03T20:11:48.648Z,-2.19
2023-02-03T20:14:19.302Z,-2.25
2023-02-03T20:16:51.107Z,-2.19
2023-02-03T20:19:20.958Z,-2.23
2023-02-03T20:21:51.729Z,-2.22
2023-02-03T20:24:21.303Z,-2.17
2023-02-03T20:26:50.693Z,-2.20
2023-02-03T20:29:19.912Z,-2.25
2023-02-03T20:31:49.588Z,-2.36
2023-02-03T20:34:19.364Z,-2.45
2023-02-03T20:36:48.649Z,-2.55
2023-02-03T20:39:22.694Z,-2.59
2023-02-03T20:41:51.928Z,-2.60
2023-02-03T20:44:23.224Z,-2.64
2023-02-03T20:46:53.729Z,-2.70
2023-02-03T20:49:23.075Z,-2.71
2023-02-03T20:51:52.481Z,-2.68
2023-02-03T20:54:24.741Z,-2.72
2023-02-03T20:56:54.164Z,-2.77
2023-02-03T20:59:23.571Z,-2.82
2023-02-03T21:01:52.922Z,-2.88
2023-02-03T21:04:39.771Z,-2.96
2023-02-03T21:07:15.630Z,-3.11
2023-02-03T21:09:46.352Z,-3.14
2023-02-03T21:12:16.448Z,-3.16
2023-02-03T21:14:49.206Z,-3.18
2023-02-03T21:17:24.229Z,-3.11
2023-02-03T21:19:54.240Z,-3.01
2023-02-03T21:22:25.953Z,-3.03
2023-02-03T21:24:58.901Z,-3.11
2023-02-03T21:27:31.328Z,-3.22
2023-02-03T21:30:03.720Z,-3.29
2023-02-03T21:32:39.944Z,-3.28
2023-02-03T21:35:24.638Z,-3.26
2023-02-03T21:37:57.345Z,-3.34
2023-02-03T21:40:31.180Z,-3.30
2023-02-03T21:43:02.390Z,-3.20
2023-02-03T21:45:43.938Z,-3.03
2023-02-03T21:51:38.103Z,-2.89
2023-02-03T21:54:30.464Z,-2.81
2023-02-03T21:57:00.664Z,-2.75
2023-02-03T21:59:42.455Z,-2.86
2023-02-03T22:02:47.642Z,-2.89
2023-02-03T22:05:17.952Z,-2.85
2023-02-03T22:07:48.653Z,-2.89
2023-02-03T22:10:18.478Z,-2.84
2023-02-03T22:12:47.696Z,-2.91
2023-02-03T22:15:17.219Z,-3.00
2023-02-03T22:17:48.450Z,-2.95
2023-02-03T22:20:17.873Z,-2.87
2023-02-03T22:22:48.475Z,-2.76
2023-02-03T22:25:17.950Z,-2.78
2023-02-03T22:27:47.472Z,-2.76
2023-02-03T22:30:18.173Z,-2.79
2023-02-03T22:32:47.616Z,-2.80
2023-02-03T22:35:17.092Z,-2.75
2023-02-03T22:37:47.800Z,-2.73
2023-02-03T22:40:17.340Z,-2.71
2023-02-03T22:42:47.012Z,-2.75
2023-02-03T22:45:17.127Z,-2.74
2023-02-03T22:47:47.609Z,-2.73
2023-02-03T22:50:22.405Z,-2.72
2023-02-03T22:53:04.463Z,-2.71
2023-02-03T22:55:34.207Z,-2.63
2023-02-03T22:58:03.536Z,-2.58
2023-02-03T23:00:33.303Z,-2.49
2023-02-03T23:03:04.266Z,-2.48
2023-02-03T23:05:33.707Z,-2.46
2023-02-03T23:08:04.852Z,-2.46
2023-02-03T23:10:34.515Z,-2.46
2023-02-03T23:13:04.161Z,-2.45
2023-02-03T23:15:33.728Z,-2.45
2023-02-03T23:18:03.091Z,-2.50
2023-02-03T23:20:32.640Z,-2.55
2023-02-03T23:23:03.610Z,-2.50
2023-02-03T23:25:32.914Z,-2.46
2023-02-03T23:28:02.274Z,-2.46
2023-02-03T23:30:31.812Z,-2.49
2023-02-03T23:33:01.369Z,-2.51
2023-02-03T23:35:47.755Z,-2.45
2023-02-03T23:38:20.198Z,-2.41
2023-02-03T23:40:49.861Z,-2.41
2023-02-03T23:43:19.101Z,-2.39
2023-02-03T23:45:48.614Z,-2.36
2023-02-03T23:48:18.330Z,-2.33
2023-02-03T23:50:49.346Z,-2.33
2023-02-03T23:53:20.016Z,-2.33
2023-02-03T23:55:49.343Z,-2.29
2023-02-03T23:58:18.806Z,-2.29
